createdAt,value
2022-10-20T00:00:22.503Z,99021.66
2022-10-20T00:02:49.346Z,99033.66
2022-10-20T00:05:16.181Z,99018.94
2022-10-20T00:07:42.740Z,99007.75
2022-10-20T00:10:09.583Z,99018.81
2022-10-20T00:12:36.601Z,99014.38
2022-10-20T00:15:03.977Z,99014.38
2022-10-20T00:17:30.582Z,99007.25
2022-10-20T00:19:57.262Z,99020.03
2022-10-20T00:22:23.836Z,99021.00
2022-10-20T00:24:51.841Z,99019.06
2022-10-20T00:27:18.462Z,99010.09
2022-10-20T00:29:47.806Z,99015.75
2022-10-20T00:32:14.495Z,99013.28
2022-10-20T00:34:41.199Z,99004.22
2022-10-20T00:37:07.847Z,99015.22
2022-10-20T00:39:34.360Z,99014.41
2022-10-20T00:42:04.837Z,99009.44
2022-10-20T00:45:09.624Z,99011.34
2022-10-20T00:47:41.180Z,99008.44
2022-10-20T00:50:12.389Z,99014.56
2022-10-20T00:52:41.381Z,99006.56
2022-10-20T00:55:09.830Z,98999.94
2022-10-20T00:57:37.619Z,98998.78
2022-10-20T01:00:06.699Z,98995.31
2022-10-20T01:02:33.344Z,98994.94
2022-10-20T01:04:59.875Z,98988.22
2022-10-20T01:07:26.530Z,98982.47
2022-10-20T01:09:54.013Z,98981.44
2022-10-20T01:12:38.645Z,98982.00
2022-10-20T01:15:19.705Z,98973.03
2022-10-20T01:18:03.029Z,98975.78
2022-10-20T01:20:52.735Z,98975.66
2022-10-20T01:23:25.338Z,98968.09
2022-10-20T01:26:10.366Z,98974.19
2022-10-20T01:28:50.261Z,98960.56
2022-10-20T01:31:30.224Z,98947.72
2022-10-20T01:34:03.846Z,98952.41
2022-10-20T01:36:37.247Z,98926.97
2022-10-20T01:39:14.189Z,98938.53
2022-10-20T01:41:49.468Z,98909.63
2022-10-20T01:44:18.684Z,98932.03
2022-10-20T01:46:46.279Z,98931.63
2022-10-20T01:49:14.817Z,98929.19
2022-10-20T01:54:39.992Z,98921.59
2022-10-20T01:57:38.730Z,98925.88
2022-10-20T02:00:10.155Z,98921.03
2022-10-20T02:03:04.865Z,98921.03
2022-10-20T02:05:40.162Z,98909.75
2022-10-20T02:08:20.632Z,98911.53
2022-10-20T02:10:52.252Z,98907.78
2022-10-20T02:13:21.200Z,98900.91
2022-10-20T02:15:54.327Z,98899.78
2022-10-20T02:18:27.324Z,98895.06
2022-10-20T02:20:56.806Z,98895.47
2022-10-20T02:23:23.470Z,98885.44
2022-10-20T02:25:52.742Z,98873.91
2022-10-20T02:28:20.211Z,98878.44
2022-10-20T02:30:47.769Z,98881.50
2022-10-20T02:33:16.511Z,98882.81
2022-10-20T02:35:57.087Z,98877.19
2022-10-20T02:38:23.959Z,98875.41
2022-10-20T02:40:50.747Z,98870.31
2022-10-20T02:43:17.447Z,98864.22
2022-10-20T02:45:43.943Z,98865.03
2022-10-20T02:48:10.497Z,98870.78
2022-10-20T02:50:37.631Z,98872.34
2022-10-20T02:53:05.448Z,98868.41
2022-10-20T02:55:32.058Z,98872.69
2022-10-20T02:57:58.762Z,98858.66
2022-10-20T03:00:25.338Z,98858.31
2022-10-20T03:02:53.136Z,98856.69
2022-10-20T03:05:19.730Z,98857.81
2022-10-20T03:07:46.263Z,98860.16
2022-10-20T03:10:12.781Z,98864.41
2022-10-20T03:12:39.578Z,98860.66
2022-10-20T03:15:06.444Z,98859.25
2022-10-20T03:17:33.220Z,98860.66
2022-10-20T03:19:59.891Z,98859.63
2022-10-20T03:22:26.523Z,98857.81
2022-10-20T03:24:53.072Z,98857.69
2022-10-20T03:27:19.763Z,98850.88
2022-10-20T03:29:46.270Z,98845.91
2022-10-20T03:32:12.856Z,98849.66
2022-10-20T03:34:39.419Z,98849.78
2022-10-20T03:37:06.221Z,98848.94
2022-10-20T03:39:32.711Z,98840.44
2022-10-20T03:41:59.312Z,98837.69
2022-10-20T03:44:25.796Z,98821.94
2022-10-20T03:46:52.327Z,98830.09
2022-10-20T03:49:18.882Z,98833.38
2022-10-20T03:51:45.490Z,98820.81
2022-10-20T03:54:11.982Z,98811.19
2022-10-20T03:56:38.662Z,98803.09
2022-10-20T03:59:05.158Z,98807.34
2022-10-20T04:01:33.233Z,98812.03
2022-10-20T04:04:00.018Z,98801.00
2022-10-20T04:06:26.728Z,98791.41
2022-10-20T04:08:53.321Z,98800.50
2022-10-20T04:11:20.102Z,98795.50
2022-10-20T04:13:46.619Z,98797.34
2022-10-20T04:16:13.185Z,98798.91
2022-10-20T04:18:39.922Z,98794.09
2022-10-20T04:21:06.551Z,98788.38
2022-10-20T04:23:33.060Z,98789.25
2022-10-20T04:25:59.673Z,98784.28
2022-10-20T04:28:26.354Z,98789.63
2022-10-20T04:30:53.043Z,98788.03
2022-10-20T04:33:19.691Z,98785.47
2022-10-20T04:35:46.398Z,98774.66
2022-10-20T04:38:12.934Z,98787.38
2022-10-20T04:40:39.551Z,98780.56
2022-10-20T04:43:06.048Z,98773.47
2022-10-20T04:45:32.667Z,98772.44
2022-10-20T04:47:59.338Z,98777.63
2022-10-20T04:50:25.907Z,98772.97
2022-10-20T04:53:06.586Z,98775.41
2022-10-20T04:55:33.430Z,98733.31
2022-10-20T04:58:00.010Z,98769.94
2022-10-20T05:00:26.789Z,98757.44
2022-10-20T05:02:54.527Z,98751.59
2022-10-20T05:05:21.134Z,98751.38
2022-10-20T05:07:47.654Z,98745.06
2022-10-20T05:10:14.295Z,98754.38
2022-10-20T05:12:40.784Z,98709.91
2022-10-20T05:15:07.859Z,98746.56
2022-10-20T05:17:34.710Z,98745.03
2022-10-20T05:20:01.303Z,98736.56
2022-10-20T05:22:27.954Z,98736.41
2022-10-20T05:24:54.528Z,98732.53
2022-10-20T05:27:21.055Z,98725.16
2022-10-20T05:29:47.693Z,98728.63
2022-10-20T05:32:14.213Z,98725.44
2022-10-20T05:34:43.886Z,98735.91
2022-10-20T05:37:10.498Z,98731.50
2022-10-20T05:39:37.118Z,98733.13
2022-10-20T05:42:03.762Z,98730.69
2022-10-20T05:44:30.376Z,98726.38
2022-10-20T05:46:56.906Z,98724.97
2022-10-20T05:49:23.541Z,98729.09
2022-10-20T05:51:50.275Z,98722.47
2022-10-20T05:54:16.898Z,98719.94
2022-10-20T05:56:43.763Z,98712.25
2022-10-20T05:59:11.210Z,98715.31
2022-10-20T06:01:37.742Z,98710.22
2022-10-20T06:04:04.792Z,98711.66
2022-10-20T06:06:31.483Z,98717.50
2022-10-20T06:09:00.482Z,98721.53
2022-10-20T06:11:27.578Z,98720.00
2022-10-20T06:13:54.224Z,98714.38
2022-10-20T06:16:23.564Z,98710.66
2022-10-20T06:18:50.480Z,98720.97
2022-10-20T06:21:20.170Z,98721.41
2022-10-20T06:23:47.348Z,98719.63
2022-10-20T06:26:16.395Z,98724.66
2022-10-20T06:28:46.579Z,98719.75
2022-10-20T06:31:21.977Z,98714.72
2022-10-20T06:33:49.322Z,98722.13
2022-10-20T06:36:16.921Z,98716.09
2022-10-20T06:38:44.011Z,98712.44
2022-10-20T06:41:12.520Z,98701.13
2022-10-20T06:43:39.362Z,98709.50
2022-10-20T06:46:08.286Z,98706.31
2022-10-20T06:48:35.564Z,98705.31
2022-10-20T06:51:06.972Z,98710.16
2022-10-20T06:53:35.274Z,98705.59
2022-10-20T06:56:07.212Z,98706.44
2022-10-20T06:58:35.456Z,98703.56
2022-10-20T07:01:10.001Z,98692.41
2022-10-20T07:03:39.246Z,98676.13
2022-10-20T07:06:06.971Z,98687.09
2022-10-20T07:08:35.666Z,98672.16
2022-10-20T07:11:11.877Z,98679.31
2022-10-20T07:13:39.187Z,98679.72
2022-10-20T07:16:07.848Z,98671.59
2022-10-20T07:18:36.181Z,98686.03
2022-10-20T07:21:05.992Z,98683.66
2022-10-20T07:23:33.003Z,98679.25
2022-10-20T07:26:10.111Z,98667.72
2022-10-20T07:28:37.646Z,98655.94
2022-10-20T07:31:13.251Z,98663.88
2022-10-20T07:33:40.060Z,98656.97
2022-10-20T07:36:14.743Z,98645.13
2022-10-20T07:38:41.951Z,98638.28
2022-10-20T07:41:09.068Z,98647.25
2022-10-20T07:43:36.711Z,98620.41
2022-10-20T07:46:03.714Z,98646.88
2022-10-20T07:48:30.301Z,98651.94
2022-10-20T07:51:15.918Z,98653.34
2022-10-20T07:53:42.961Z,98654.81
2022-10-20T07:56:10.270Z,98651.91
2022-10-20T07:58:37.156Z,98647.53
2022-10-20T08:01:04.516Z,98654.97
2022-10-20T08:03:31.349Z,98649.88
2022-10-20T08:05:58.105Z,98637.81
2022-10-20T08:08:24.760Z,98654.06
2022-10-20T08:10:51.431Z,98655.47
2022-10-20T08:13:18.383Z,98666.56
2022-10-20T08:15:51.726Z,98613.00
2022-10-20T08:18:22.865Z,98651.50
2022-10-20T08:20:49.707Z,98649.53
2022-10-20T08:23:16.879Z,98640.56
2022-10-20T08:25:44.011Z,98646.88
2022-10-20T08:28:10.716Z,98631.94
2022-10-20T08:30:37.612Z,98628.03
2022-10-20T08:33:04.135Z,98638.72
2022-10-20T08:35:30.835Z,98638.16
2022-10-20T08:37:59.127Z,98631.50
2022-10-20T08:40:30.223Z,98634.75
2022-10-20T08:42:57.883Z,98632.25
2022-10-20T08:45:26.473Z,98635.50
2022-10-20T08:47:55.819Z,98626.16
2022-10-20T08:50:23.622Z,98611.53
2022-10-20T08:52:53.966Z,98610.59
2022-10-20T08:55:27.080Z,98594.75
2022-10-20T08:58:00.020Z,98609.09
2022-10-20T09:00:27.172Z,98605.34
2022-10-20T09:02:54.180Z,98609.44
2022-10-20T09:05:26.021Z,98611.06
2022-10-20T09:07:54.646Z,98479.09
2022-10-20T09:10:35.335Z,98597.59
2022-10-20T09:13:06.736Z,98586.75
2022-10-20T09:15:33.680Z,98593.91
2022-10-20T09:18:03.936Z,98591.22
2022-10-20T09:20:36.148Z,98554.31
2022-10-20T09:23:07.898Z,98595.50
2022-10-20T09:25:44.004Z,98590.72
2022-10-20T09:28:49.187Z,98587.09
2022-10-20T09:31:33.050Z,98585.88
2022-10-20T09:33:59.902Z,98569.47
2022-10-20T09:36:33.702Z,98560.66
2022-10-20T09:39:01.184Z,98599.56
2022-10-20T09:41:32.241Z,98584.88
2022-10-20T09:44:02.183Z,98584.69
2022-10-20T09:46:34.544Z,98586.69
2022-10-20T09:49:01.214Z,98565.91
2022-10-20T09:51:29.601Z,98555.56
2022-10-20T09:54:02.312Z,98547.28
2022-10-20T09:56:46.899Z,98552.28
2022-10-20T09:59:25.104Z,98559.69
2022-10-20T10:02:03.795Z,98543.00
2022-10-20T10:04:32.355Z,98540.03
2022-10-20T10:06:59.125Z,98510.19
2022-10-20T10:09:30.888Z,98536.44
2022-10-20T10:12:03.361Z,98530.22
2022-10-20T10:14:32.212Z,98530.72
2022-10-20T10:17:00.101Z,98528.75
2022-10-20T10:19:30.250Z,98514.41
2022-10-20T10:22:03.962Z,98500.22
2022-10-20T10:24:36.612Z,98502.13
2022-10-20T10:27:03.303Z,98506.91
2022-10-20T10:29:38.698Z,98478.69
2022-10-20T10:32:16.561Z,98494.03
2022-10-20T10:35:04.749Z,98485.72
2022-10-20T10:37:34.737Z,98441.19
2022-10-20T10:40:14.901Z,98479.56
2022-10-20T10:43:08.988Z,98470.53
2022-10-20T10:45:50.587Z,98488.47
2022-10-20T10:48:51.076Z,98480.09
2022-10-20T10:51:23.618Z,98475.03
2022-10-20T10:54:02.459Z,98462.28
2022-10-20T10:56:40.577Z,98446.06
2022-10-20T10:59:31.497Z,98450.00
2022-10-20T11:02:20.136Z,98449.06
2022-10-20T11:05:28.456Z,98472.13
2022-10-20T11:08:20.737Z,98479.34
2022-10-20T11:11:12.734Z,98475.63
2022-10-20T11:14:07.918Z,98463.84
2022-10-20T11:17:01.956Z,98448.94
2022-10-20T11:19:59.932Z,98453.47
2022-10-20T11:22:35.745Z,98441.19
2022-10-20T11:25:22.754Z,98441.47
2022-10-20T11:27:50.190Z,98439.13
2022-10-20T11:30:19.411Z,98439.63
2022-10-20T11:32:58.022Z,98441.75
2022-10-20T11:35:46.784Z,98449.25
2022-10-20T11:38:27.015Z,98451.84
2022-10-20T11:41:00.735Z,98430.47
2022-10-20T11:43:39.852Z,98434.50
2022-10-20T11:46:11.640Z,98422.19
2022-10-20T11:48:50.477Z,98418.09
2022-10-20T11:51:32.070Z,98419.38
2022-10-20T11:54:10.537Z,98419.09
2022-10-20T11:56:55.550Z,98423.19
2022-10-20T11:59:40.944Z,98424.69
2022-10-20T12:02:29.388Z,98410.47
2022-10-20T12:05:17.154Z,98413.28
2022-10-20T12:08:28.360Z,98400.34
2022-10-20T12:11:10.898Z,98399.94
2022-10-20T12:14:14.534Z,98396.47
2022-10-20T12:16:53.126Z,98385.31
2022-10-20T12:19:22.501Z,98387.78
2022-10-20T12:22:13.785Z,98384.97
2022-10-20T12:24:42.904Z,98380.66
2022-10-20T12:27:09.373Z,98373.31
2022-10-20T12:29:35.981Z,98361.94
2022-10-20T12:32:27.236Z,98353.63
2022-10-20T12:34:58.721Z,98354.63
2022-10-20T12:37:25.248Z,98346.63
2022-10-20T12:39:54.312Z,98322.59
2022-10-20T12:42:27.831Z,98347.28
2022-10-20T12:44:56.861Z,98344.63
2022-10-20T12:47:29.336Z,98349.25
2022-10-20T12:50:01.670Z,98359.47
2022-10-20T12:52:31.687Z,98323.63
2022-10-20T12:55:17.091Z,98365.97
2022-10-20T12:57:45.181Z,98374.31
2022-10-20T13:00:20.599Z,98375.69
2022-10-20T13:02:48.992Z,98371.25
2022-10-20T13:05:15.460Z,98366.13
2022-10-20T13:07:48.172Z,98370.63
2022-10-20T13:10:26.861Z,98358.09
2022-10-20T13:12:54.285Z,98362.31
2022-10-20T13:15:22.273Z,98365.50
2022-10-20T13:17:57.632Z,98358.25
2022-10-20T13:20:39.603Z,98369.38
2022-10-20T13:23:13.196Z,98360.66
2022-10-20T13:25:42.884Z,98375.91
2022-10-20T13:28:24.642Z,98368.34
2022-10-20T13:30:53.918Z,98372.00
2022-10-20T13:33:38.893Z,98369.09
2022-10-20T13:36:53.212Z,98363.16
2022-10-20T13:39:36.328Z,98356.38
2022-10-20T13:42:17.815Z,98355.72
2022-10-20T13:45:07.796Z,98347.69
2022-10-20T13:47:56.315Z,98341.19
2022-10-20T13:50:36.738Z,98330.81
2022-10-20T13:53:21.541Z,98312.63
2022-10-20T13:56:18.464Z,98278.00
2022-10-20T13:59:19.993Z,98259.47
2022-10-20T14:02:29.649Z,98253.19
2022-10-20T14:05:11.573Z,98267.44
2022-10-20T14:07:44.548Z,98285.34
2022-10-20T14:10:25.622Z,98336.25
2022-10-20T14:12:55.475Z,98355.06
2022-10-20T14:15:32.477Z,98344.84
2022-10-20T14:18:25.449Z,98345.06
2022-10-20T14:21:02.114Z,98364.31
2022-10-20T14:23:36.489Z,98364.63
2022-10-20T14:26:14.161Z,98353.16
2022-10-20T14:28:44.321Z,98349.88
2022-10-20T14:31:14.803Z,98341.88
2022-10-20T14:33:52.151Z,98340.22
2022-10-20T14:36:29.124Z,98329.59
2022-10-20T14:38:59.258Z,98331.41
2022-10-20T14:41:29.018Z,98330.81
2022-10-20T14:44:12.257Z,98333.53
2022-10-20T14:46:46.589Z,98329.75
2022-10-20T14:49:27.956Z,98315.59
2022-10-20T14:51:56.187Z,98319.59
2022-10-20T14:54:37.623Z,98315.31
2022-10-20T14:57:10.407Z,98320.38
2022-10-20T14:59:50.473Z,98323.81
2022-10-20T15:02:25.022Z,98316.63
2022-10-20T15:04:52.071Z,98324.56
2022-10-20T15:07:32.131Z,98310.47
2022-10-20T15:10:17.214Z,98314.53
2022-10-20T15:12:46.977Z,98307.25
2022-10-20T15:15:13.449Z,98309.66
2022-10-20T15:17:41.737Z,98319.09
2022-10-20T15:20:30.127Z,98306.66
2022-10-20T15:22:58.548Z,98307.91
2022-10-20T15:25:26.904Z,98292.66
2022-10-20T15:27:58.583Z,98296.28
2022-10-20T15:30:26.504Z,98292.81
2022-10-20T15:32:54.327Z,98280.34
2022-10-20T15:35:22.408Z,98269.91
2022-10-20T15:37:51.854Z,98279.00
2022-10-20T15:40:20.244Z,98274.31
2022-10-20T15:42:47.200Z,98265.94
2022-10-20T15:45:22.876Z,98260.78
2022-10-20T15:47:54.047Z,98274.66
2022-10-20T15:50:22.980Z,98281.16
2022-10-20T15:52:51.807Z,98250.88
2022-10-20T15:55:27.495Z,98276.94
2022-10-20T15:57:54.969Z,98251.47
2022-10-20T16:00:24.190Z,98277.75
2022-10-20T16:02:51.333Z,98283.50
2022-10-20T16:05:20.651Z,98287.59
2022-10-20T16:07:47.640Z,98292.53
2022-10-20T16:10:14.149Z,98285.31
2022-10-20T16:12:40.886Z,98278.56
2022-10-20T16:15:09.169Z,98273.66
2022-10-20T16:17:36.270Z,98270.66
2022-10-20T16:20:05.010Z,98256.97
2022-10-20T16:22:31.651Z,98259.59
2022-10-20T16:24:58.180Z,98268.03
2022-10-20T16:27:24.798Z,98271.16
2022-10-20T16:29:51.425Z,98263.94
2022-10-20T16:32:18.395Z,98271.00
2022-10-20T16:34:45.002Z,98266.63
2022-10-20T16:37:11.558Z,98261.69
2022-10-20T16:39:38.132Z,98255.84
2022-10-20T16:42:04.926Z,98257.41
2022-10-20T16:44:31.600Z,98270.25
2022-10-20T16:46:58.660Z,98252.84
2022-10-20T16:49:25.444Z,98235.41
2022-10-20T16:51:52.031Z,98232.41
2022-10-20T16:54:18.794Z,98246.66
2022-10-20T16:56:45.454Z,98250.06
2022-10-20T16:59:11.977Z,98237.44
2022-10-20T17:01:38.578Z,98253.69
2022-10-20T17:04:05.583Z,98257.97
2022-10-20T17:06:32.586Z,98217.13
2022-10-20T17:08:59.896Z,98240.50
2022-10-20T17:11:29.844Z,98245.94
2022-10-20T17:13:58.156Z,98247.63
2022-10-20T17:16:31.303Z,98241.31
2022-10-20T17:19:00.702Z,98243.50
2022-10-20T17:21:29.113Z,98248.53
2022-10-20T17:23:57.860Z,98248.38
2022-10-20T17:26:27.051Z,98250.16
2022-10-20T17:28:55.286Z,98241.41
2022-10-20T17:31:21.967Z,98251.75
2022-10-20T17:33:49.715Z,98237.91
2022-10-20T17:36:16.567Z,98225.53
2022-10-20T17:38:43.758Z,98232.41
2022-10-20T17:41:15.350Z,98231.06
2022-10-20T17:43:42.155Z,98209.59
2022-10-20T17:46:12.767Z,98221.88
2022-10-20T17:48:39.979Z,98213.03
2022-10-20T17:51:17.550Z,98218.72
2022-10-20T17:53:46.196Z,98211.94
2022-10-20T17:56:15.627Z,98209.63
2022-10-20T17:58:44.182Z,98209.03
2022-10-20T18:01:13.594Z,98205.75
2022-10-20T18:03:41.304Z,98207.44
2022-10-20T18:06:13.865Z,98208.22
2022-10-20T18:08:41.625Z,98204.66
2022-10-20T18:11:10.430Z,98204.38
2022-10-20T18:13:37.928Z,98172.72
2022-10-20T18:16:06.723Z,98195.88
2022-10-20T18:18:33.562Z,98190.44
2022-10-20T18:21:00.148Z,98184.88
2022-10-20T18:23:26.812Z,98188.84
2022-10-20T18:25:53.982Z,98175.53
2022-10-20T18:28:20.631Z,98175.69
2022-10-20T18:30:47.176Z,98169.66
2022-10-20T18:33:13.741Z,98181.78
2022-10-20T18:35:40.427Z,98173.63
2022-10-20T18:38:07.160Z,98179.63
2022-10-20T18:40:33.776Z,98184.84
2022-10-20T18:43:00.573Z,98174.25
2022-10-20T18:45:27.737Z,98190.84
2022-10-20T18:47:54.428Z,98174.41
2022-10-20T18:50:21.262Z,98146.31
2022-10-20T18:52:48.153Z,98179.53
2022-10-20T18:55:14.710Z,98171.09
2022-10-20T18:57:41.333Z,98179.13
2022-10-20T19:00:09.279Z,98175.59
2022-10-20T19:02:36.025Z,98138.06
2022-10-20T19:05:04.323Z,98169.72
2022-10-20T19:07:34.837Z,98169.72
2022-10-20T19:10:01.730Z,98192.25
2022-10-20T19:12:28.294Z,98201.22
2022-10-20T19:14:55.037Z,98193.13
2022-10-20T19:17:21.720Z,98193.34
2022-10-20T19:19:48.484Z,98189.91
2022-10-20T19:22:15.000Z,98190.22
2022-10-20T19:24:41.584Z,98201.03
2022-10-20T19:27:25.741Z,98201.91
2022-10-20T19:29:53.924Z,98192.72
2022-10-20T19:32:20.472Z,98182.13
2022-10-20T19:34:48.260Z,98186.28
2022-10-20T19:37:14.809Z,98195.69
2022-10-20T19:39:42.546Z,98207.50
2022-10-20T19:42:10.270Z,98200.94
2022-10-20T19:44:38.008Z,98190.31
2022-10-20T19:47:05.360Z,98176.44
2022-10-20T19:49:32.440Z,98193.56
2022-10-20T19:51:59.600Z,98176.63
2022-10-20T19:54:26.626Z,98190.66
2022-10-20T19:56:55.616Z,98180.72
2022-10-20T19:59:22.299Z,98173.47
2022-10-20T20:01:49.695Z,98163.13
2022-10-20T20:04:17.232Z,98162.75
2022-10-20T20:06:46.182Z,98160.66
2022-10-20T20:09:13.565Z,98141.13
2022-10-20T20:11:40.528Z,98141.13
2022-10-20T20:14:10.202Z,98133.81
2022-10-20T20:16:39.800Z,98127.91
2022-10-20T20:19:08.504Z,98128.75
2022-10-20T20:21:38.891Z,98139.72
2022-10-20T20:24:06.860Z,98123.69
2022-10-20T20:26:39.953Z,98133.41
2022-10-20T20:29:07.494Z,98096.78
2022-10-20T20:31:37.961Z,98144.19
2022-10-20T20:34:05.112Z,98139.28
2022-10-20T20:36:32.462Z,98117.97
2022-10-20T20:38:59.710Z,98103.72
2022-10-20T20:41:29.611Z,98104.91
2022-10-20T20:43:56.420Z,98102.91
2022-10-20T20:46:24.890Z,98121.56
2022-10-20T20:48:51.707Z,98110.59
2022-10-20T20:51:18.972Z,98110.97
2022-10-20T20:53:45.541Z,98129.13
2022-10-20T20:56:15.006Z,98129.75
2022-10-20T20:58:42.619Z,98152.56
2022-10-20T21:01:13.423Z,98154.38
2022-10-20T21:03:40.489Z,98116.53
2022-10-20T21:06:09.755Z,98175.31
2022-10-20T21:08:39.958Z,98175.75
2022-10-20T21:11:11.863Z,98184.28
2022-10-20T21:13:39.585Z,98130.13
2022-10-20T21:16:15.553Z,98172.69
2022-10-20T21:18:44.564Z,98171.25
2022-10-20T21:21:17.012Z,98137.88
2022-10-20T21:23:43.891Z,98170.22
2022-10-20T21:26:12.540Z,98181.22
2022-10-20T21:28:40.957Z,98184.25
2022-10-20T21:31:09.726Z,98141.03
2022-10-20T21:33:37.741Z,98114.25
2022-10-20T21:36:09.944Z,98126.94
2022-10-20T21:38:38.376Z,98136.88
2022-10-20T21:41:07.079Z,98129.53
2022-10-20T21:43:35.369Z,98132.97
2022-10-20T21:46:17.728Z,98111.63
2022-10-20T21:48:46.031Z,98082.56
2022-10-20T21:51:12.510Z,98112.47
2022-10-20T21:53:39.362Z,98100.06
2022-10-20T21:56:07.300Z,98120.00
2022-10-20T21:58:34.817Z,98122.22
2022-10-20T22:01:12.249Z,98117.53
2022-10-20T22:03:39.600Z,98107.19
2022-10-20T22:06:07.515Z,98099.44
2022-10-20T22:08:39.710Z,98098.59
2022-10-20T22:11:11.961Z,98098.56
2022-10-20T22:13:38.751Z,98060.72
2022-10-20T22:16:06.807Z,98085.16
2022-10-20T22:18:33.547Z,98109.78
2022-10-20T22:21:12.381Z,98116.50
2022-10-20T22:23:41.453Z,98095.50
2022-10-20T22:26:08.786Z,98112.00
2022-10-20T22:28:35.925Z,98102.84
2022-10-20T22:31:03.218Z,98110.16
2022-10-20T22:33:29.875Z,98115.06
2022-10-20T22:35:56.601Z,98107.25
2022-10-20T22:38:23.298Z,98115.28
2022-10-20T22:40:50.014Z,98119.19
2022-10-20T22:43:16.812Z,98116.75
2022-10-20T22:45:43.458Z,98098.00
2022-10-20T22:48:10.213Z,98086.22
2022-10-20T22:50:37.277Z,98111.63
2022-10-20T22:53:03.913Z,98114.03
2022-10-20T22:55:30.757Z,98110.38
2022-10-20T23:00:29.163Z,98114.25
2022-10-20T23:02:55.848Z,98111.41
2022-10-20T23:05:22.953Z,98108.53
2022-10-20T23:07:49.563Z,98110.78
2022-10-20T23:10:16.367Z,98107.72
2022-10-20T23:12:43.177Z,98113.47
2022-10-20T23:15:10.454Z,98105.69
2022-10-20T23:17:37.773Z,98111.38
2022-10-20T23:20:05.188Z,98103.44
2022-10-20T23:22:31.727Z,98095.72
2022-10-20T23:24:58.302Z,98087.59
2022-10-20T23:27:24.882Z,98082.31
2022-10-20T23:29:51.493Z,98090.28
2022-10-20T23:32:18.039Z,98087.41
2022-10-20T23:34:44.751Z,98089.47
2022-10-20T23:37:11.264Z,98092.31
2022-10-20T23:39:37.931Z,98083.16
2022-10-20T23:42:07.196Z,98079.06
2022-10-20T23:44:34.254Z,98070.31
2022-10-20T23:47:00.826Z,98078.06
2022-10-20T23:49:27.561Z,98054.84
2022-10-20T23:51:54.135Z,98058.69
2022-10-20T23:54:21.103Z,98055.03
2022-10-20T23:56:47.731Z,98052.38
2022-10-20T23:59:14.514Z,98031.25
